Terminal Aerodrome Forecast
Issued by NWS Blacksburg, VA

Current Version | Previous Version | Graphics & Text | Print | Product List | Glossary On
Versions: 1 2 3 4 5 6 7 8 9 10 11 12 13 14 15 16 17 18 19 20 21 22
000
FTUS41 KRNK 250959 AAA
TAFBLF
TAF AMD
KBLF 250959Z 2510/2606 05003KT P6SM SKC
      TEMPO 2510/2513 4SM BR OVC005
     FM251400 17003KT P6SM SKC
     FM251700 12006KT P6SM BKN035=

USA.gov is the U.S. government's official web portal to all federal, state and local government web resources and services.